sensor_id;sensor_type;location;lat;lon;timestamp;P1;durP1;ratioP1;P2;durP2;ratioP2
59145;SDS011;44928;53.074;6.646;2023-02-03T00:00:34;7.05;;;1.50;;
59145;SDS011;44928;53.074;6.646;2023-02-03T00:03:00;8.85;;;1.58;;
59145;SDS011;44928;53.074;6.646;2023-02-03T00:05:26;7.05;;;1.80;;
59145;SDS011;44928;53.074;6.646;2023-02-03T00:07:53;8.25;;;1.50;;
59145;SDS011;44928;53.074;6.646;2023-02-03T00:10:19;7.88;;;1.40;;
59145;SDS011;44928;53.074;6.646;2023-02-03T00:12:49;8.45;;;1.52;;
59145;SDS011;44928;53.074;6.646;2023-02-03T00:15:17;8.65;;;1.60;;
59145;SDS011;44928;53.074;6.646;2023-02-03T00:17:43;6.75;;;1.08;;
59145;SDS011;44928;53.074;6.646;2023-02-03T00:20:09;9.48;;;2.13;;
59145;SDS011;44928;53.074;6.646;2023-02-03T00:22:36;6.22;;;1.42;;
59145;SDS011;44928;53.074;6.646;2023-02-03T00:25:02;9.50;;;1.67;;
59145;SDS011;44928;53.074;6.646;2023-02-03T00:27:28;7.68;;;1.63;;
59145;SDS011;44928;53.074;6.646;2023-02-03T00:29:54;5.70;;;1.10;;
59145;SDS011;44928;53.074;6.646;2023-02-03T00:32:20;6.75;;;1.50;;
59145;SDS011;44928;53.074;6.646;2023-02-03T00:34:45;8.00;;;1.30;;
59145;SDS011;44928;53.074;6.646;2023-02-03T00:37:11;5.05;;;1.20;;
59145;SDS011;44928;53.074;6.646;2023-02-03T00:39:37;6.18;;;1.10;;
59145;SDS011;44928;53.074;6.646;2023-02-03T00:42:04;7.75;;;1.33;;
59145;SDS011;44928;53.074;6.646;2023-02-03T00:44:30;6.13;;;1.20;;
59145;SDS011;44928;53.074;6.646;2023-02-03T00:46:57;4.30;;;0.82;;
59145;SDS011;44928;53.074;6.646;2023-02-03T00:49:23;7.32;;;1.63;;
59145;SDS011;44928;53.074;6.646;2023-02-03T00:51:50;5.78;;;1.13;;
59145;SDS011;44928;53.074;6.646;2023-02-03T00:54:16;10.13;;;1.55;;
59145;SDS011;44928;53.074;6.646;2023-02-03T00:56:42;7.18;;;1.23;;
59145;SDS011;44928;53.074;6.646;2023-02-03T00:59:08;7.22;;;1.55;;
59145;SDS011;44928;53.074;6.646;2023-02-03T01:01:34;5.20;;;1.08;;
59145;SDS011;44928;53.074;6.646;2023-02-03T01:04:00;7.18;;;1.50;;
59145;SDS011;44928;53.074;6.646;2023-02-03T01:06:26;10.43;;;1.65;;
59145;SDS011;44928;53.074;6.646;2023-02-03T01:08:52;7.97;;;1.52;;
59145;SDS011;44928;53.074;6.646;2023-02-03T01:11:22;7.75;;;1.35;;
59145;SDS011;44928;53.074;6.646;2023-02-03T01:13:52;9.55;;;1.42;;
59145;SDS011;44928;53.074;6.646;2023-02-03T01:16:20;8.80;;;1.52;;
59145;SDS011;44928;53.074;6.646;2023-02-03T01:18:47;8.45;;;1.58;;
59145;SDS011;44928;53.074;6.646;2023-02-03T01:21:15;7.70;;;1.80;;
59145;SDS011;44928;53.074;6.646;2023-02-03T01:23:43;8.25;;;2.15;;
59145;SDS011;44928;53.074;6.646;2023-02-03T01:26:11;6.85;;;1.40;;
59145;SDS011;44928;53.074;6.646;2023-02-03T01:28:39;11.05;;;2.05;;
59145;SDS011;44928;53.074;6.646;2023-02-03T01:31:13;7.78;;;1.58;;
59145;SDS011;44928;53.074;6.646;2023-02-03T01:33:44;11.27;;;1.42;;
59145;SDS011;44928;53.074;6.646;2023-02-03T01:36:13;6.60;;;1.40;;
59145;SDS011;44928;53.074;6.646;2023-02-03T01:38:42;8.52;;;1.75;;
59145;SDS011;44928;53.074;6.646;2023-02-03T01:41:11;12.77;;;2.55;;
59145;SDS011;44928;53.074;6.646;2023-02-03T01:43:40;9.38;;;1.83;;
59145;SDS011;44928;53.074;6.646;2023-02-03T01:49:03;9.30;;;2.03;;
59145;SDS011;44928;53.074;6.646;2023-02-03T01:51:35;5.18;;;1.20;;
59145;SDS011;44928;53.074;6.646;2023-02-03T01:54:03;11.90;;;2.10;;
59145;SDS011;44928;53.074;6.646;2023-02-03T01:56:32;9.10;;;1.75;;
59145;SDS011;44928;53.074;6.646;2023-02-03T02:01:28;7.63;;;1.55;;
59145;SDS011;44928;53.074;6.646;2023-02-03T02:03:56;9.45;;;1.90;;
59145;SDS011;44928;53.074;6.646;2023-02-03T02:06:25;8.07;;;1.50;;
59145;SDS011;44928;53.074;6.646;2023-02-03T02:08:51;11.52;;;2.35;;
59145;SDS011;44928;53.074;6.646;2023-02-03T02:11:18;8.85;;;1.63;;
59145;SDS011;44928;53.074;6.646;2023-02-03T02:13:48;7.00;;;1.48;;
59145;SDS011;44928;53.074;6.646;2023-02-03T02:16:33;6.70;;;1.30;;
59145;SDS011;44928;53.074;6.646;2023-02-03T02:22:13;6.47;;;1.30;;
59145;SDS011;44928;53.074;6.646;2023-02-03T02:30:38;8.63;;;1.92;;
59145;SDS011;44928;53.074;6.646;2023-02-03T02:39:29;8.30;;;1.45;;
59145;SDS011;44928;53.074;6.646;2023-02-03T02:42:06;12.23;;;1.90;;
59145;SDS011;44928;53.074;6.646;2023-02-03T02:44:40;7.88;;;1.52;;
59145;SDS011;44928;53.074;6.646;2023-02-03T02:47:20;9.05;;;1.65;;
59145;SDS011;44928;53.074;6.646;2023-02-03T02:52:37;8.10;;;1.42;;
59145;SDS011;44928;53.074;6.646;2023-02-03T02:55:09;11.27;;;2.20;;
59145;SDS011;44928;53.074;6.646;2023-02-03T02:57:51;9.98;;;1.63;;
59145;SDS011;44928;53.074;6.646;2023-02-03T03:00:19;7.47;;;1.67;;
59145;SDS011;44928;53.074;6.646;2023-02-03T03:02:46;11.02;;;1.83;;
59145;SDS011;44928;53.074;6.646;2023-02-03T03:05:12;8.20;;;1.42;;
59145;SDS011;44928;53.074;6.646;2023-02-03T03:07:42;10.80;;;1.98;;
59145;SDS011;44928;53.074;6.646;2023-02-03T03:10:14;13.35;;;2.22;;
59145;SDS011;44928;53.074;6.646;2023-02-03T03:12:47;12.32;;;2.47;;
59145;SDS011;44928;53.074;6.646;2023-02-03T03:15:21;7.78;;;1.40;;
59145;SDS011;44928;53.074;6.646;2023-02-03T03:17:57;8.43;;;1.73;;
59145;SDS011;44928;53.074;6.646;2023-02-03T03:20:47;8.52;;;1.75;;
59145;SDS011;44928;53.074;6.646;2023-02-03T03:23:19;12.82;;;2.38;;
59145;SDS011;44928;53.074;6.646;2023-02-03T03:25:50;10.77;;;2.17;;
59145;SDS011;44928;53.074;6.646;2023-02-03T03:28:35;7.85;;;1.23;;
59145;SDS011;44928;53.074;6.646;2023-02-03T03:31:08;13.63;;;2.30;;
59145;SDS011;44928;53.074;6.646;2023-02-03T03:33:34;10.95;;;1.98;;
59145;SDS011;44928;53.074;6.646;2023-02-03T03:36:02;8.00;;;1.55;;
59145;SDS011;44928;53.074;6.646;2023-02-03T03:38:31;11.02;;;2.30;;
59145;SDS011;44928;53.074;6.646;2023-02-03T03:43:55;8.68;;;1.85;;
59145;SDS011;44928;53.074;6.646;2023-02-03T03:46:27;8.77;;;1.65;;
59145;SDS011;44928;53.074;6.646;2023-02-03T03:48:59;9.27;;;1.63;;
59145;SDS011;44928;53.074;6.646;2023-02-03T03:51:28;7.13;;;1.50;;
59145;SDS011;44928;53.074;6.646;2023-02-03T03:54:03;8.68;;;1.65;;
59145;SDS011;44928;53.074;6.646;2023-02-03T03:56:38;7.75;;;1.60;;
59145;SDS011;44928;53.074;6.646;2023-02-03T03:59:19;10.20;;;2.63;;
59145;SDS011;44928;53.074;6.646;2023-02-03T04:01:47;10.40;;;1.63;;
59145;SDS011;44928;53.074;6.646;2023-02-03T04:04:14;11.77;;;1.90;;
59145;SDS011;44928;53.074;6.646;2023-02-03T04:06:40;9.00;;;1.60;;
59145;SDS011;44928;53.074;6.646;2023-02-03T04:09:06;11.32;;;2.05;;
59145;SDS011;44928;53.074;6.646;2023-02-03T04:11:32;12.45;;;1.83;;
59145;SDS011;44928;53.074;6.646;2023-02-03T04:14:17;10.15;;;1.95;;
59145;SDS011;44928;53.074;6.646;2023-02-03T04:16:42;13.77;;;1.92;;
59145;SDS011;44928;53.074;6.646;2023-02-03T04:19:08;10.52;;;1.80;;
59145;SDS011;44928;53.074;6.646;2023-02-03T04:21:34;11.95;;;1.98;;
59145;SDS011;44928;53.074;6.646;2023-02-03T04:24:00;8.52;;;1.70;;
59145;SDS011;44928;53.074;6.646;2023-02-03T04:26:25;6.65;;;1.75;;
59145;SDS011;44928;53.074;6.646;2023-02-03T04:28:51;12.40;;;1.80;;
59145;SDS011;44928;53.074;6.646;2023-02-03T04:31:17;8.70;;;1.90;;
59145;SDS011;44928;53.074;6.646;2023-02-03T04:33:43;12.55;;;2.03;;
59145;SDS011;44928;53.074;6.646;2023-02-03T04:36:08;10.35;;;2.03;;
59145;SDS011;44928;53.074;6.646;2023-02-03T04:38:34;10.57;;;1.35;;
59145;SDS011;44928;53.074;6.646;2023-02-03T04:41:00;11.18;;;1.50;;
59145;SDS011;44928;53.074;6.646;2023-02-03T04:43:26;8.05;;;1.35;;
59145;SDS011;44928;53.074;6.646;2023-02-03T04:45:51;10.80;;;1.65;;
59145;SDS011;44928;53.074;6.646;2023-02-03T04:48:17;12.43;;;1.40;;
59145;SDS011;44928;53.074;6.646;2023-02-03T04:50:43;9.30;;;1.83;;
59145;SDS011;44928;53.074;6.646;2023-02-03T04:53:09;9.85;;;1.63;;
59145;SDS011;44928;53.074;6.646;2023-02-03T04:55:34;11.10;;;2.05;;
59145;SDS011;44928;53.074;6.646;2023-02-03T04:58:00;10.88;;;2.10;;
59145;SDS011;44928;53.074;6.646;2023-02-03T05:00:26;8.07;;;1.85;;
59145;SDS011;44928;53.074;6.646;2023-02-03T05:02:52;9.10;;;1.92;;
59145;SDS011;44928;53.074;6.646;2023-02-03T05:05:19;15.15;;;2.53;;
59145;SDS011;44928;53.074;6.646;2023-02-03T05:07:45;11.38;;;1.98;;
59145;SDS011;44928;53.074;6.646;2023-02-03T05:10:11;9.98;;;1.45;;
59145;SDS011;44928;53.074;6.646;2023-02-03T05:12:37;10.57;;;2.10;;
59145;SDS011;44928;53.074;6.646;2023-02-03T05:15:03;10.88;;;1.92;;
59145;SDS011;44928;53.074;6.646;2023-02-03T05:17:29;12.27;;;1.70;;
59145;SDS011;44928;53.074;6.646;2023-02-03T05:19:54;10.07;;;1.65;;
59145;SDS011;44928;53.074;6.646;2023-02-03T05:22:20;7.35;;;1.33;;
59145;SDS011;44928;53.074;6.646;2023-02-03T05:24:46;8.80;;;1.60;;
59145;SDS011;44928;53.074;6.646;2023-02-03T05:27:12;9.15;;;1.52;;
59145;SDS011;44928;53.074;6.646;2023-02-03T05:29:37;9.50;;;1.60;;
59145;SDS011;44928;53.074;6.646;2023-02-03T05:32:03;8.70;;;1.60;;
59145;SDS011;44928;53.074;6.646;2023-02-03T05:34:29;9.38;;;2.13;;
59145;SDS011;44928;53.074;6.646;2023-02-03T05:36:55;9.13;;;2.47;;
59145;SDS011;44928;53.074;6.646;2023-02-03T05:39:21;9.05;;;1.80;;
59145;SDS011;44928;53.074;6.646;2023-02-03T05:41:46;10.23;;;2.33;;
59145;SDS011;44928;53.074;6.646;2023-02-03T05:44:19;9.93;;;1.80;;
59145;SDS011;44928;53.074;6.646;2023-02-03T05:46:49;10.90;;;2.20;;
59145;SDS011;44928;53.074;6.646;2023-02-03T05:49:16;12.38;;;2.28;;
59145;SDS011;44928;53.074;6.646;2023-02-03T05:51:43;8.90;;;1.55;;
59145;SDS011;44928;53.074;6.646;2023-02-03T05:54:10;12.15;;;2.15;;
59145;SDS011;44928;53.074;6.646;2023-02-03T05:56:36;8.02;;;1.95;;
59145;SDS011;44928;53.074;6.646;2023-02-03T05:59:03;13.13;;;2.67;;
59145;SDS011;44928;53.074;6.646;2023-02-03T06:01:29;12.40;;;2.25;;
59145;SDS011;44928;53.074;6.646;2023-02-03T06:03:56;11.98;;;2.17;;
59145;SDS011;44928;53.074;6.646;2023-02-03T06:06:21;10.73;;;1.70;;
59145;SDS011;44928;53.074;6.646;2023-02-03T06:08:47;9.90;;;1.65;;
59145;SDS011;44928;53.074;6.646;2023-02-03T06:11:16;9.10;;;2.72;;
59145;SDS011;44928;53.074;6.646;2023-02-03T06:13:42;10.02;;;1.75;;
59145;SDS011;44928;53.074;6.646;2023-02-03T06:16:08;11.38;;;2.60;;
59145;SDS011;44928;53.074;6.646;2023-02-03T06:18:34;10.57;;;2.28;;
59145;SDS011;44928;53.074;6.646;2023-02-03T06:20:59;12.32;;;2.38;;
59145;SDS011;44928;53.074;6.646;2023-02-03T06:23:25;8.73;;;1.88;;
59145;SDS011;44928;53.074;6.646;2023-02-03T06:25:51;8.13;;;1.55;;
59145;SDS011;44928;53.074;6.646;2023-02-03T06:28:17;12.95;;;2.67;;
59145;SDS011;44928;53.074;6.646;2023-02-03T06:30:43;10.82;;;2.50;;
59145;SDS011;44928;53.074;6.646;2023-02-03T06:33:09;11.85;;;2.38;;
59145;SDS011;44928;53.074;6.646;2023-02-03T06:35:34;14.60;;;3.47;;
59145;SDS011;44928;53.074;6.646;2023-02-03T06:38:00;13.95;;;2.55;;
59145;SDS011;44928;53.074;6.646;2023-02-03T06:40:26;18.58;;;3.60;;
59145;SDS011;44928;53.074;6.646;2023-02-03T06:42:52;12.30;;;2.28;;
59145;SDS011;44928;53.074;6.646;2023-02-03T06:45:18;11.75;;;2.47;;
59145;SDS011;44928;53.074;6.646;2023-02-03T06:47:44;12.38;;;2.60;;
59145;SDS011;44928;53.074;6.646;2023-02-03T06:50:10;16.05;;;2.80;;
59145;SDS011;44928;53.074;6.646;2023-02-03T06:52:38;14.15;;;2.33;;
59145;SDS011;44928;53.074;6.646;2023-02-03T06:55:04;16.65;;;2.47;;
59145;SDS011;44928;53.074;6.646;2023-02-03T06:57:31;11.25;;;2.38;;
59145;SDS011;44928;53.074;6.646;2023-02-03T06:59:57;8.95;;;2.95;;
59145;SDS011;44928;53.074;6.646;2023-02-03T07:02:23;11.23;;;2.42;;
59145;SDS011;44928;53.074;6.646;2023-02-03T07:04:49;14.20;;;2.25;;
59145;SDS011;44928;53.074;6.646;2023-02-03T07:07:15;12.20;;;2.60;;
59145;SDS011;44928;53.074;6.646;2023-02-03T07:09:41;10.50;;;2.50;;
59145;SDS011;44928;53.074;6.646;2023-02-03T07:12:07;9.43;;;2.35;;
59145;SDS011;44928;53.074;6.646;2023-02-03T07:14:34;10.30;;;1.85;;
59145;SDS011;44928;53.074;6.646;2023-02-03T07:17:02;19.60;;;3.40;;
59145;SDS011;44928;53.074;6.646;2023-02-03T07:19:29;12.75;;;2.60;;
59145;SDS011;44928;53.074;6.646;2023-02-03T07:21:55;13.45;;;2.15;;
59145;SDS011;44928;53.074;6.646;2023-02-03T07:24:21;16.58;;;2.50;;
59145;SDS011;44928;53.074;6.646;2023-02-03T07:26:46;15.00;;;2.90;;
59145;SDS011;44928;53.074;6.646;2023-02-03T07:29:12;14.18;;;3.50;;
59145;SDS011;44928;53.074;6.646;2023-02-03T07:31:38;15.75;;;3.33;;
59145;SDS011;44928;53.074;6.646;2023-02-03T07:34:04;10.48;;;2.22;;
59145;SDS011;44928;53.074;6.646;2023-02-03T07:36:30;11.48;;;2.70;;
59145;SDS011;44928;53.074;6.646;2023-02-03T07:38:57;15.90;;;3.13;;
59145;SDS011;44928;53.074;6.646;2023-02-03T07:41:23;13.68;;;2.75;;
59145;SDS011;44928;53.074;6.646;2023-02-03T07:43:49;18.77;;;3.60;;
59145;SDS011;44928;53.074;6.646;2023-02-03T07:46:14;13.75;;;2.63;;
59145;SDS011;44928;53.074;6.646;2023-02-03T07:48:40;12.80;;;2.72;;
59145;SDS011;44928;53.074;6.646;2023-02-03T07:51:06;16.23;;;3.38;;
59145;SDS011;44928;53.074;6.646;2023-02-03T07:53:32;11.80;;;2.70;;
59145;SDS011;44928;53.074;6.646;2023-02-03T07:55:58;15.82;;;2.92;;
59145;SDS011;44928;53.074;6.646;2023-02-03T07:58:25;14.23;;;4.72;;
59145;SDS011;44928;53.074;6.646;2023-02-03T08:00:51;13.05;;;3.40;;
59145;SDS011;44928;53.074;6.646;2023-02-03T08:03:17;15.70;;;3.65;;
59145;SDS011;44928;53.074;6.646;2023-02-03T08:05:42;10.43;;;2.45;;
59145;SDS011;44928;53.074;6.646;2023-02-03T08:08:08;15.70;;;3.13;;
59145;SDS011;44928;53.074;6.646;2023-02-03T08:10:34;19.48;;;3.30;;
59145;SDS011;44928;53.074;6.646;2023-02-03T08:13:00;14.15;;;2.67;;
59145;SDS011;44928;53.074;6.646;2023-02-03T08:15:25;21.08;;;3.65;;
59145;SDS011;44928;53.074;6.646;2023-02-03T08:17:51;15.80;;;3.00;;
59145;SDS011;44928;53.074;6.646;2023-02-03T08:20:17;15.30;;;3.20;;
59145;SDS011;44928;53.074;6.646;2023-02-03T08:22:43;18.40;;;2.88;;
59145;SDS011;44928;53.074;6.646;2023-02-03T08:25:09;17.67;;;2.83;;
59145;SDS011;44928;53.074;6.646;2023-02-03T08:27:35;11.52;;;2.05;;
59145;SDS011;44928;53.074;6.646;2023-02-03T08:30:01;16.63;;;3.88;;
59145;SDS011;44928;53.074;6.646;2023-02-03T08:32:28;12.20;;;2.15;;
59145;SDS011;44928;53.074;6.646;2023-02-03T08:34:53;19.83;;;3.72;;
59145;SDS011;44928;53.074;6.646;2023-02-03T08:37:20;15.00;;;2.67;;
59145;SDS011;44928;53.074;6.646;2023-02-03T08:39:51;13.60;;;2.47;;
59145;SDS011;44928;53.074;6.646;2023-02-03T08:42:17;15.13;;;4.07;;
59145;SDS011;44928;53.074;6.646;2023-02-03T08:44:43;20.08;;;2.90;;
59145;SDS011;44928;53.074;6.646;2023-02-03T08:47:09;12.00;;;2.63;;
59145;SDS011;44928;53.074;6.646;2023-02-03T08:49:36;15.48;;;3.42;;
59145;SDS011;44928;53.074;6.646;2023-02-03T08:52:06;21.52;;;3.33;;
59145;SDS011;44928;53.074;6.646;2023-02-03T08:54:32;21.35;;;3.30;;
59145;SDS011;44928;53.074;6.646;2023-02-03T08:56:58;20.73;;;4.13;;
59145;SDS011;44928;53.074;6.646;2023-02-03T08:59:24;22.02;;;4.07;;
59145;SDS011;44928;53.074;6.646;2023-02-03T09:01:51;16.30;;;3.75;;
59145;SDS011;44928;53.074;6.646;2023-02-03T09:04:17;13.00;;;2.95;;
59145;SDS011;44928;53.074;6.646;2023-02-03T09:06:48;16.33;;;2.72;;
59145;SDS011;44928;53.074;6.646;2023-02-03T09:09:15;16.52;;;3.67;;
59145;SDS011;44928;53.074;6.646;2023-02-03T09:11:41;19.85;;;4.10;;
59145;SDS011;44928;53.074;6.646;2023-02-03T09:14:08;19.13;;;3.50;;
59145;SDS011;44928;53.074;6.646;2023-02-03T09:16:34;20.73;;;3.28;;
59145;SDS011;44928;53.074;6.646;2023-02-03T09:19:00;18.08;;;3.75;;
59145;SDS011;44928;53.074;6.646;2023-02-03T09:21:26;19.45;;;4.80;;
59145;SDS011;44928;53.074;6.646;2023-02-03T09:23:52;20.85;;;3.90;;
59145;SDS011;44928;53.074;6.646;2023-02-03T09:26:17;20.00;;;3.20;;
59145;SDS011;44928;53.074;6.646;2023-02-03T09:28:43;23.75;;;4.47;;
59145;SDS011;44928;53.074;6.646;2023-02-03T09:31:11;12.90;;;2.45;;
59145;SDS011;44928;53.074;6.646;2023-02-03T09:33:38;21.55;;;3.47;;
59145;SDS011;44928;53.074;6.646;2023-02-03T09:36:05;15.30;;;2.78;;
59145;SDS011;44928;53.074;6.646;2023-02-03T09:38:32;23.17;;;4.00;;
59145;SDS011;44928;53.074;6.646;2023-02-03T09:46:30;20.50;;;3.75;;
59145;SDS011;44928;53.074;6.646;2023-02-03T09:49:34;21.85;;;3.88;;
59145;SDS011;44928;53.074;6.646;2023-02-03T09:52:02;18.10;;;4.15;;
59145;SDS011;44928;53.074;6.646;2023-02-03T09:56:58;21.92;;;3.83;;
59145;SDS011;44928;53.074;6.646;2023-02-03T09:59:28;15.85;;;3.35;;
59145;SDS011;44928;53.074;6.646;2023-02-03T10:04:38;20.58;;;3.83;;
59145;SDS011;44928;53.074;6.646;2023-02-03T10:07:18;18.33;;;4.00;;
59145;SDS011;44928;53.074;6.646;2023-02-03T10:10:10;20.25;;;3.20;;
59145;SDS011;44928;53.074;6.646;2023-02-03T10:12:45;17.98;;;3.45;;
59145;SDS011;44928;53.074;6.646;2023-02-03T10:16:24;20.38;;;3.33;;
59145;SDS011;44928;53.074;6.646;2023-02-03T10:18:44;22.08;;;4.32;;
59145;SDS011;44928;53.074;6.646;2023-02-03T10:23:52;20.75;;;4.38;;
59145;SDS011;44928;53.074;6.646;2023-02-03T10:26:22;21.85;;;4.05;;
59145;SDS011;44928;53.074;6.646;2023-02-03T10:28:55;22.80;;;4.38;;
59145;SDS011;44928;53.074;6.646;2023-02-03T10:31:29;19.17;;;3.30;;
59145;SDS011;44928;53.074;6.646;2023-02-03T10:34:00;20.55;;;3.80;;
59145;SDS011;44928;53.074;6.646;2023-02-03T10:42:08;21.20;;;4.75;;
59145;SDS011;44928;53.074;6.646;2023-02-03T10:44:48;27.02;;;3.55;;
59145;SDS011;44928;53.074;6.646;2023-02-03T10:47:31;21.65;;;4.18;;
59145;SDS011;44928;53.074;6.646;2023-02-03T10:50:04;25.70;;;4.22;;
59145;SDS011;44928;53.074;6.646;2023-02-03T10:52:39;24.60;;;4.78;;
59145;SDS011;44928;53.074;6.646;2023-02-03T10:57:49;24.50;;;3.85;;
59145;SDS011;44928;53.074;6.646;2023-02-03T11:03:05;29.45;;;4.63;;
59145;SDS011;44928;53.074;6.646;2023-02-03T11:05:40;25.35;;;4.53;;
59145;SDS011;44928;53.074;6.646;2023-02-03T11:08:15;23.20;;;4.70;;
59145;SDS011;44928;53.074;6.646;2023-02-03T11:10:41;24.73;;;4.20;;
59145;SDS011;44928;53.074;6.646;2023-02-03T11:13:18;27.08;;;4.30;;
59145;SDS011;44928;53.074;6.646;2023-02-03T11:16:02;20.13;;;4.38;;
59145;SDS011;44928;53.074;6.646;2023-02-03T11:23:43;22.92;;;4.57;;
59145;SDS011;44928;53.074;6.646;2023-02-03T11:26:14;23.25;;;4.57;;
59145;SDS011;44928;53.074;6.646;2023-02-03T11:28:43;25.70;;;4.25;;
59145;SDS011;44928;53.074;6.646;2023-02-03T11:31:20;27.67;;;4.32;;
59145;SDS011;44928;53.074;6.646;2023-02-03T11:34:35;26.15;;;5.05;;
59145;SDS011;44928;53.074;6.646;2023-02-03T11:36:42;23.90;;;4.65;;
59145;SDS011;44928;53.074;6.646;2023-02-03T11:39:16;21.27;;;4.63;;
59145;SDS011;44928;53.074;6.646;2023-02-03T11:41:44;27.90;;;4.75;;
59145;SDS011;44928;53.074;6.646;2023-02-03T11:44:15;33.88;;;5.72;;
59145;SDS011;44928;53.074;6.646;2023-02-03T11:46:43;28.13;;;6.45;;
59145;SDS011;44928;53.074;6.646;2023-02-03T11:54:56;27.30;;;5.22;;
59145;SDS011;44928;53.074;6.646;2023-02-03T11:57:34;22.95;;;4.65;;
59145;SDS011;44928;53.074;6.646;2023-02-03T12:00:11;26.75;;;5.75;;
59145;SDS011;44928;53.074;6.646;2023-02-03T12:05:48;24.90;;;4.47;;
59145;SDS011;44928;53.074;6.646;2023-02-03T12:19:08;25.58;;;4.78;;
59145;SDS011;44928;53.074;6.646;2023-02-03T12:21:59;22.70;;;4.18;;
59145;SDS011;44928;53.074;6.646;2023-02-03T12:25:02;19.58;;;3.92;;
59145;SDS011;44928;53.074;6.646;2023-02-03T12:27:44;24.13;;;4.43;;
59145;SDS011;44928;53.074;6.646;2023-02-03T12:30:24;26.50;;;4.82;;
59145;SDS011;44928;53.074;6.646;2023-02-03T12:32:56;24.33;;;4.32;;
59145;SDS011;44928;53.074;6.646;2023-02-03T12:35:35;28.75;;;5.70;;
59145;SDS011;44928;53.074;6.646;2023-02-03T12:40:49;23.27;;;4.28;;
59145;SDS011;44928;53.074;6.646;2023-02-03T12:43:38;23.63;;;4.05;;
59145;SDS011;44928;53.074;6.646;2023-02-03T12:51:39;21.00;;;4.75;;
59145;SDS011;44928;53.074;6.646;2023-02-03T13:05:42;21.50;;;4.97;;
59145;SDS011;44928;53.074;6.646;2023-02-03T13:08:14;20.77;;;4.22;;
59145;SDS011;44928;53.074;6.646;2023-02-03T13:10:56;22.30;;;4.35;;
59145;SDS011;44928;53.074;6.646;2023-02-03T13:13:44;20.88;;;3.80;;
59145;SDS011;44928;53.074;6.646;2023-02-03T13:16:20;24.15;;;4.70;;
59145;SDS011;44928;53.074;6.646;2023-02-03T13:18:53;21.58;;;4.57;;
59145;SDS011;44928;53.074;6.646;2023-02-03T13:21:23;24.90;;;4.13;;
59145;SDS011;44928;53.074;6.646;2023-02-03T13:23:49;24.63;;;5.18;;
59145;SDS011;44928;53.074;6.646;2023-02-03T13:32:27;28.88;;;4.90;;
59145;SDS011;44928;53.074;6.646;2023-02-03T13:35:05;24.20;;;4.85;;
59145;SDS011;44928;53.074;6.646;2023-02-03T13:42:52;22.60;;;4.75;;
59145;SDS011;44928;53.074;6.646;2023-02-03T13:47:53;29.35;;;4.95;;
59145;SDS011;44928;53.074;6.646;2023-02-03T13:50:22;17.83;;;3.40;;
59145;SDS011;44928;53.074;6.646;2023-02-03T13:55:44;23.95;;;4.55;;
59145;SDS011;44928;53.074;6.646;2023-02-03T13:58:22;23.85;;;4.68;;
59145;SDS011;44928;53.074;6.646;2023-02-03T14:05:49;24.60;;;4.40;;
59145;SDS011;44928;53.074;6.646;2023-02-03T14:19:03;23.10;;;3.85;;
59145;SDS011;44928;53.074;6.646;2023-02-03T14:24:16;23.65;;;4.90;;
59145;SDS011;44928;53.074;6.646;2023-02-03T14:26:44;18.55;;;4.05;;
59145;SDS011;44928;53.074;6.646;2023-02-03T14:29:25;23.23;;;4.78;;
59145;SDS011;44928;53.074;6.646;2023-02-03T14:32:03;20.13;;;4.60;;
59145;SDS011;44928;53.074;6.646;2023-02-03T14:56:24;17.60;;;2.92;;
59145;SDS011;44928;53.074;6.646;2023-02-03T14:59:23;20.02;;;3.40;;
59145;SDS011;44928;53.074;6.646;2023-02-03T15:04:28;17.83;;;3.45;;
59145;SDS011;44928;53.074;6.646;2023-02-03T15:06:53;19.67;;;4.00;;
59145;SDS011;44928;53.074;6.646;2023-02-03T15:12:18;24.73;;;4.40;;
59145;SDS011;44928;53.074;6.646;2023-02-03T15:14:47;21.30;;;3.60;;
59145;SDS011;44928;53.074;6.646;2023-02-03T15:19:52;22.70;;;4.75;;
59145;SDS011;44928;53.074;6.646;2023-02-03T15:22:25;18.85;;;3.20;;
59145;SDS011;44928;53.074;6.646;2023-02-03T15:24:55;15.98;;;3.03;;
59145;SDS011;44928;53.074;6.646;2023-02-03T15:27:27;17.80;;;3.20;;
59145;SDS011;44928;53.074;6.646;2023-02-03T15:29:54;19.83;;;3.85;;
59145;SDS011;44928;53.074;6.646;2023-02-03T15:32:36;15.05;;;2.63;;
59145;SDS011;44928;53.074;6.646;2023-02-03T15:35:08;20.05;;;3.53;;
59145;SDS011;44928;53.074;6.646;2023-02-03T15:37:44;15.80;;;2.85;;
59145;SDS011;44928;53.074;6.646;2023-02-03T15:40:20;20.42;;;3.95;;
59145;SDS011;44928;53.074;6.646;2023-02-03T15:45:28;16.75;;;3.05;;
59145;SDS011;44928;53.074;6.646;2023-02-03T15:48:05;17.83;;;2.47;;
59145;SDS011;44928;53.074;6.646;2023-02-03T15:50:54;20.05;;;2.83;;
59145;SDS011;44928;53.074;6.646;2023-02-03T15:53:44;21.08;;;3.85;;
59145;SDS011;44928;53.074;6.646;2023-02-03T15:56:24;20.40;;;3.40;;
59145;SDS011;44928;53.074;6.646;2023-02-03T15:59:05;14.20;;;2.67;;
59145;SDS011;44928;53.074;6.646;2023-02-03T16:01:46;21.45;;;4.35;;
59145;SDS011;44928;53.074;6.646;2023-02-03T16:04:12;22.60;;;4.32;;
59145;SDS011;44928;53.074;6.646;2023-02-03T16:06:38;21.65;;;3.63;;
59145;SDS011;44928;53.074;6.646;2023-02-03T16:09:25;20.17;;;3.80;;
59145;SDS011;44928;53.074;6.646;2023-02-03T16:12:02;19.98;;;4.00;;
59145;SDS011;44928;53.074;6.646;2023-02-03T16:14:32;20.92;;;4.35;;
59145;SDS011;44928;53.074;6.646;2023-02-03T16:16:59;22.25;;;3.70;;
59145;SDS011;44928;53.074;6.646;2023-02-03T16:19:26;21.70;;;4.05;;
59145;SDS011;44928;53.074;6.646;2023-02-03T16:21:55;17.55;;;3.25;;
59145;SDS011;44928;53.074;6.646;2023-02-03T16:24:42;21.63;;;4.13;;
59145;SDS011;44928;53.074;6.646;2023-02-03T16:30:33;22.00;;;4.07;;
59145;SDS011;44928;53.074;6.646;2023-02-03T16:35:52;20.55;;;4.32;;
59145;SDS011;44928;53.074;6.646;2023-02-03T16:38:42;20.40;;;3.85;;
59145;SDS011;44928;53.074;6.646;2023-02-03T16:41:28;23.23;;;4.18;;
59145;SDS011;44928;53.074;6.646;2023-02-03T16:44:13;25.02;;;4.30;;
59145;SDS011;44928;53.074;6.646;2023-02-03T16:46:57;19.85;;;3.92;;
59145;SDS011;44928;53.074;6.646;2023-02-03T16:49:42;27.40;;;5.45;;
59145;SDS011;44928;53.074;6.646;2023-02-03T16:52:26;29.08;;;5.95;;
59145;SDS011;44928;53.074;6.646;2023-02-03T16:54:52;28.45;;;4.97;;
59145;SDS011;44928;53.074;6.646;2023-02-03T16:57:19;29.10;;;5.95;;
59145;SDS011;44928;53.074;6.646;2023-02-03T16:59:44;20.50;;;4.13;;
59145;SDS011;44928;53.074;6.646;2023-02-03T17:02:10;19.48;;;4.20;;
59145;SDS011;44928;53.074;6.646;2023-02-03T17:04:36;68.80;;;33.85;;
59145;SDS011;44928;53.074;6.646;2023-02-03T17:07:02;32.22;;;6.95;;
59145;SDS011;44928;53.074;6.646;2023-02-03T17:09:31;30.80;;;6.55;;
59145;SDS011;44928;53.074;6.646;2023-02-03T17:12:02;24.25;;;5.60;;
59145;SDS011;44928;53.074;6.646;2023-02-03T17:14:28;25.77;;;5.95;;
59145;SDS011;44928;53.074;6.646;2023-02-03T17:16:54;22.38;;;3.47;;
59145;SDS011;44928;53.074;6.646;2023-02-03T17:19:20;25.92;;;4.78;;
59145;SDS011;44928;53.074;6.646;2023-02-03T17:21:46;30.45;;;6.82;;
59145;SDS011;44928;53.074;6.646;2023-02-03T17:24:12;26.83;;;5.90;;
59145;SDS011;44928;53.074;6.646;2023-02-03T17:26:39;32.92;;;11.73;;
59145;SDS011;44928;53.074;6.646;2023-02-03T17:29:04;24.73;;;6.45;;
59145;SDS011;44928;53.074;6.646;2023-02-03T17:31:30;29.77;;;5.18;;
59145;SDS011;44928;53.074;6.646;2023-02-03T17:33:56;27.83;;;4.57;;
59145;SDS011;44928;53.074;6.646;2023-02-03T17:36:23;24.20;;;4.90;;
59145;SDS011;44928;53.074;6.646;2023-02-03T17:38:53;27.52;;;6.15;;
59145;SDS011;44928;53.074;6.646;2023-02-03T17:41:21;23.63;;;4.05;;
59145;SDS011;44928;53.074;6.646;2023-02-03T17:43:49;20.20;;;4.75;;